Aeroporto :
LOGIN :

Iscrizione | Disclaimer

   EN    FR    IT 

 










Sommario :    VFR   VFR Marginale   IFR   IFR Intensivo   IFR Molto Intensivo
Visibilità : 
Base nubi : 
>= 8 km
>= 3000ft
5 / 8 km
1000 / 3000 ft
1500m / 5 km
500 / 1000 ft
800 / 1500m
200 / 500 ft
< 800m
< 200 ft
Simboli :   Temporali  Nebbia  Neve Forte  Precipitazioni Forti  Vento > 20 kt
SIGMETs :   Varie  Temporali  Ghiacco  Turbolenza  Onda orograficha  Ceneri Vulcaniche






- Altitudine del aeroporto : 20 ft
- Codice IATA : BJA


DAAE - Soummam - Bejaia

ULTIMO METAR :
  • 091800Z 06004KT 9999 FEW020 SCT090 16/12 Q1019

METARs OBSOLETI :
  • 091700Z 05006KT 9999 FEW020 17/13 Q1019
  • 091600Z 06006KT 9999 FEW020 18/14 Q1019

TAF COR TAF DAAE
Valido dal 09 a 18 ore il 10 a 18 ore UTC


091700Z 0918/1018 06009KT 9999 FEW026
PROB30
TEMPO 0918/0920 FEW023TCU
PROB30
TEMPO 1003/1007 4000 BR BKN015
PROB30
TEMPO 1014/1018 FEW026CB



MetMap, La meteo Aeronautica in un colpo d'occhio ! - Copyright ORBIFLY Dicembre 2007 - Disclaimer

ORBIFLY MET'MAP TEAM :

Programmazione e sviluppo : Alexandra Zaïnal
Concezione : Baudouin d'Aumeries
Aiuto per la programmazione : Marc-Olivier Méhu
Supporto tecnico e logistico : Manuel Goepfert
Aiuto per la traduzione : Arnaldo La Scala

Contatto : metmap@orbifly.com




FONTI E CREDITI :

   NOAA